sensor_id;sensor_type;location;lat;lon;timestamp;P1;durP1;ratioP1;P2;durP2;ratioP2
49972;SDS011;65693;49.798;10.968;2023-05-23T00:01:19;9.40;;;8.05;;
49972;SDS011;65693;49.798;10.968;2023-05-23T00:03:46;8.63;;;7.82;;
49972;SDS011;65693;49.798;10.968;2023-05-23T00:06:13;9.02;;;8.13;;
49972;SDS011;65693;49.798;10.968;2023-05-23T00:08:39;8.50;;;7.70;;
49972;SDS011;65693;49.798;10.968;2023-05-23T00:11:06;8.82;;;7.93;;
49972;SDS011;65693;49.798;10.968;2023-05-23T00:13:32;9.23;;;7.93;;
49972;SDS011;65693;49.798;10.968;2023-05-23T00:15:59;8.80;;;7.72;;
49972;SDS011;65693;49.798;10.968;2023-05-23T00:18:27;8.85;;;7.95;;
49972;SDS011;65693;49.798;10.968;2023-05-23T00:20:54;9.38;;;7.78;;
49972;SDS011;65693;49.798;10.968;2023-05-23T00:23:21;9.15;;;8.25;;
49972;SDS011;65693;49.798;10.968;2023-05-23T00:25:49;9.45;;;8.02;;
49972;SDS011;65693;49.798;10.968;2023-05-23T00:28:17;9.10;;;7.95;;
49972;SDS011;65693;49.798;10.968;2023-05-23T00:30:43;8.70;;;7.80;;
49972;SDS011;65693;49.798;10.968;2023-05-23T00:33:10;8.57;;;7.68;;
49972;SDS011;65693;49.798;10.968;2023-05-23T00:35:39;8.73;;;7.82;;
49972;SDS011;65693;49.798;10.968;2023-05-23T00:38:06;8.60;;;7.80;;
49972;SDS011;65693;49.798;10.968;2023-05-23T00:40:32;9.82;;;8.05;;
49972;SDS011;65693;49.798;10.968;2023-05-23T00:42:59;8.75;;;7.85;;
49972;SDS011;65693;49.798;10.968;2023-05-23T00:45:25;9.38;;;8.45;;
49972;SDS011;65693;49.798;10.968;2023-05-23T00:47:52;8.95;;;8.05;;
49972;SDS011;65693;49.798;10.968;2023-05-23T00:50:19;9.05;;;8.15;;
49972;SDS011;65693;49.798;10.968;2023-05-23T00:52:47;8.93;;;8.02;;
49972;SDS011;65693;49.798;10.968;2023-05-23T00:55:14;9.32;;;8.43;;
49972;SDS011;65693;49.798;10.968;2023-05-23T00:57:41;9.15;;;8.00;;
49972;SDS011;65693;49.798;10.968;2023-05-23T01:00:08;8.93;;;8.02;;
49972;SDS011;65693;49.798;10.968;2023-05-23T01:02:37;8.45;;;7.57;;
49972;SDS011;65693;49.798;10.968;2023-05-23T01:05:08;9.05;;;8.15;;
49972;SDS011;65693;49.798;10.968;2023-05-23T01:07:35;9.75;;;8.10;;
49972;SDS011;65693;49.798;10.968;2023-05-23T01:10:03;9.27;;;8.20;;
49972;SDS011;65693;49.798;10.968;2023-05-23T01:12:32;9.68;;;8.18;;
49972;SDS011;65693;49.798;10.968;2023-05-23T01:15:03;8.95;;;8.05;;
49972;SDS011;65693;49.798;10.968;2023-05-23T01:17:33;8.65;;;7.75;;
49972;SDS011;65693;49.798;10.968;2023-05-23T01:20:09;9.57;;;8.57;;
49972;SDS011;65693;49.798;10.968;2023-05-23T01:22:42;9.02;;;8.13;;
49972;SDS011;65693;49.798;10.968;2023-05-23T01:25:38;8.65;;;7.75;;
49972;SDS011;65693;49.798;10.968;2023-05-23T01:28:15;9.40;;;7.90;;
49972;SDS011;65693;49.798;10.968;2023-05-23T01:30:44;8.73;;;7.82;;
49972;SDS011;65693;49.798;10.968;2023-05-23T01:33:13;8.95;;;8.05;;
49972;SDS011;65693;49.798;10.968;2023-05-23T01:35:41;9.07;;;8.02;;
49972;SDS011;65693;49.798;10.968;2023-05-23T01:38:08;8.75;;;7.65;;
49972;SDS011;65693;49.798;10.968;2023-05-23T01:40:35;8.88;;;7.78;;
49972;SDS011;65693;49.798;10.968;2023-05-23T01:43:01;9.10;;;8.13;;
49972;SDS011;65693;49.798;10.968;2023-05-23T01:45:29;9.73;;;8.73;;
49972;SDS011;65693;49.798;10.968;2023-05-23T01:47:56;9.00;;;8.07;;
49972;SDS011;65693;49.798;10.968;2023-05-23T01:50:23;9.18;;;8.18;;
49972;SDS011;65693;49.798;10.968;2023-05-23T01:52:51;8.95;;;8.05;;
49972;SDS011;65693;49.798;10.968;2023-05-23T01:55:18;11.05;;;8.98;;
49972;SDS011;65693;49.798;10.968;2023-05-23T01:57:48;9.30;;;8.40;;
49972;SDS011;65693;49.798;10.968;2023-05-23T02:00:16;9.65;;;8.50;;
49972;SDS011;65693;49.798;10.968;2023-05-23T02:02:45;8.93;;;8.02;;
49972;SDS011;65693;49.798;10.968;2023-05-23T02:05:11;8.82;;;7.93;;
49972;SDS011;65693;49.798;10.968;2023-05-23T02:07:38;9.70;;;8.70;;
49972;SDS011;65693;49.798;10.968;2023-05-23T02:10:06;9.18;;;8.27;;
49972;SDS011;65693;49.798;10.968;2023-05-23T02:12:34;9.52;;;8.50;;
49972;SDS011;65693;49.798;10.968;2023-05-23T02:15:00;9.60;;;8.25;;
49972;SDS011;65693;49.798;10.968;2023-05-23T02:17:26;9.38;;;8.40;;
49972;SDS011;65693;49.798;10.968;2023-05-23T02:19:54;8.55;;;7.65;;
49972;SDS011;65693;49.798;10.968;2023-05-23T02:22:21;9.55;;;8.57;;
49972;SDS011;65693;49.798;10.968;2023-05-23T02:24:48;8.68;;;7.72;;
49972;SDS011;65693;49.798;10.968;2023-05-23T02:27:15;9.60;;;8.02;;
49972;SDS011;65693;49.798;10.968;2023-05-23T02:29:42;9.18;;;7.75;;
49972;SDS011;65693;49.798;10.968;2023-05-23T02:32:08;9.15;;;7.85;;
49972;SDS011;65693;49.798;10.968;2023-05-23T02:34:35;9.20;;;8.23;;
49972;SDS011;65693;49.798;10.968;2023-05-23T02:37:03;9.65;;;8.60;;
49972;SDS011;65693;49.798;10.968;2023-05-23T02:39:30;9.50;;;8.40;;
49972;SDS011;65693;49.798;10.968;2023-05-23T02:41:56;8.73;;;7.82;;
49972;SDS011;65693;49.798;10.968;2023-05-23T02:44:23;8.90;;;7.88;;
49972;SDS011;65693;49.798;10.968;2023-05-23T02:46:49;9.48;;;8.07;;
49972;SDS011;65693;49.798;10.968;2023-05-23T02:49:15;9.63;;;8.38;;
49972;SDS011;65693;49.798;10.968;2023-05-23T02:51:42;8.60;;;7.70;;
49972;SDS011;65693;49.798;10.968;2023-05-23T02:54:09;9.00;;;7.97;;
49972;SDS011;65693;49.798;10.968;2023-05-23T02:56:36;9.40;;;8.30;;
49972;SDS011;65693;49.798;10.968;2023-05-23T02:59:02;9.02;;;8.13;;
49972;SDS011;65693;49.798;10.968;2023-05-23T03:01:29;9.65;;;8.50;;
49972;SDS011;65693;49.798;10.968;2023-05-23T03:03:55;9.98;;;8.95;;
49972;SDS011;65693;49.798;10.968;2023-05-23T03:06:21;9.32;;;8.25;;
49972;SDS011;65693;49.798;10.968;2023-05-23T03:08:48;9.60;;;8.00;;
49972;SDS011;65693;49.798;10.968;2023-05-23T03:11:16;9.55;;;8.40;;
49972;SDS011;65693;49.798;10.968;2023-05-23T03:13:42;9.27;;;8.32;;
49972;SDS011;65693;49.798;10.968;2023-05-23T03:16:09;9.20;;;8.30;;
49972;SDS011;65693;49.798;10.968;2023-05-23T03:18:36;9.40;;;8.40;;
49972;SDS011;65693;49.798;10.968;2023-05-23T03:21:02;10.07;;;8.95;;
49972;SDS011;65693;49.798;10.968;2023-05-23T03:23:29;9.52;;;8.52;;
49972;SDS011;65693;49.798;10.968;2023-05-23T03:25:56;9.55;;;8.55;;
49972;SDS011;65693;49.798;10.968;2023-05-23T03:28:25;9.27;;;8.30;;
49972;SDS011;65693;49.798;10.968;2023-05-23T03:30:51;10.18;;;9.05;;
49972;SDS011;65693;49.798;10.968;2023-05-23T03:33:18;9.07;;;8.18;;
49972;SDS011;65693;49.798;10.968;2023-05-23T03:35:44;8.63;;;7.70;;
49972;SDS011;65693;49.798;10.968;2023-05-23T03:38:11;9.43;;;8.43;;
49972;SDS011;65693;49.798;10.968;2023-05-23T03:40:37;9.40;;;8.40;;
49972;SDS011;65693;49.798;10.968;2023-05-23T03:43:04;9.57;;;8.45;;
49972;SDS011;65693;49.798;10.968;2023-05-23T03:45:33;9.30;;;8.30;;
49972;SDS011;65693;49.798;10.968;2023-05-23T03:47:59;9.45;;;8.45;;
49972;SDS011;65693;49.798;10.968;2023-05-23T03:50:26;8.98;;;8.07;;
49972;SDS011;65693;49.798;10.968;2023-05-23T03:52:53;9.57;;;8.13;;
49972;SDS011;65693;49.798;10.968;2023-05-23T03:55:19;8.82;;;7.93;;
49972;SDS011;65693;49.798;10.968;2023-05-23T03:57:48;9.23;;;8.25;;
49972;SDS011;65693;49.798;10.968;2023-05-23T04:00:14;9.57;;;8.52;;
49972;SDS011;65693;49.798;10.968;2023-05-23T04:02:42;8.63;;;7.72;;
49972;SDS011;65693;49.798;10.968;2023-05-23T04:05:10;9.77;;;8.77;;
49972;SDS011;65693;49.798;10.968;2023-05-23T04:07:36;10.85;;;8.00;;
49972;SDS011;65693;49.798;10.968;2023-05-23T04:10:03;9.20;;;8.15;;
49972;SDS011;65693;49.798;10.968;2023-05-23T04:12:30;9.20;;;8.27;;
49972;SDS011;65693;49.798;10.968;2023-05-23T04:14:57;9.90;;;8.73;;
49972;SDS011;65693;49.798;10.968;2023-05-23T04:17:23;9.23;;;8.27;;
49972;SDS011;65693;49.798;10.968;2023-05-23T04:19:51;9.05;;;8.15;;
49972;SDS011;65693;49.798;10.968;2023-05-23T04:22:19;8.52;;;7.65;;
49972;SDS011;65693;49.798;10.968;2023-05-23T04:24:45;8.50;;;7.60;;
49972;SDS011;65693;49.798;10.968;2023-05-23T04:27:11;9.95;;;8.48;;
49972;SDS011;65693;49.798;10.968;2023-05-23T04:29:38;9.25;;;7.90;;
49972;SDS011;65693;49.798;10.968;2023-05-23T04:32:05;9.60;;;8.50;;
49972;SDS011;65693;49.798;10.968;2023-05-23T04:34:32;9.00;;;8.00;;
49972;SDS011;65693;49.798;10.968;2023-05-23T04:37:00;10.10;;;8.52;;
49972;SDS011;65693;49.798;10.968;2023-05-23T04:39:26;8.82;;;7.93;;
49972;SDS011;65693;49.798;10.968;2023-05-23T04:41:53;9.40;;;7.65;;
49972;SDS011;65693;49.798;10.968;2023-05-23T04:44:20;9.35;;;8.35;;
49972;SDS011;65693;49.798;10.968;2023-05-23T04:46:47;9.02;;;8.13;;
49972;SDS011;65693;49.798;10.968;2023-05-23T04:49:14;10.25;;;8.27;;
49972;SDS011;65693;49.798;10.968;2023-05-23T04:51:40;9.48;;;8.30;;
49972;SDS011;65693;49.798;10.968;2023-05-23T04:54:08;9.32;;;8.32;;
49972;SDS011;65693;49.798;10.968;2023-05-23T04:56:35;8.32;;;7.53;;
49972;SDS011;65693;49.798;10.968;2023-05-23T04:59:01;9.38;;;7.95;;
49972;SDS011;65693;49.798;10.968;2023-05-23T05:01:28;8.68;;;7.80;;
49972;SDS011;65693;49.798;10.968;2023-05-23T05:03:55;9.48;;;8.48;;
49972;SDS011;65693;49.798;10.968;2023-05-23T05:06:21;8.52;;;7.63;;
49972;SDS011;65693;49.798;10.968;2023-05-23T05:08:51;9.82;;;7.80;;
49972;SDS011;65693;49.798;10.968;2023-05-23T05:11:20;10.23;;;7.35;;
49972;SDS011;65693;49.798;10.968;2023-05-23T05:13:46;10.38;;;8.18;;
49972;SDS011;65693;49.798;10.968;2023-05-23T05:16:12;10.20;;;8.55;;
49972;SDS011;65693;49.798;10.968;2023-05-23T05:18:39;9.40;;;7.95;;
49972;SDS011;65693;49.798;10.968;2023-05-23T05:21:05;9.13;;;8.15;;
49972;SDS011;65693;49.798;10.968;2023-05-23T05:23:32;9.10;;;7.97;;
49972;SDS011;65693;49.798;10.968;2023-05-23T05:25:58;9.20;;;7.82;;
49972;SDS011;65693;49.798;10.968;2023-05-23T05:28:26;9.05;;;8.15;;
49972;SDS011;65693;49.798;10.968;2023-05-23T05:30:53;9.52;;;7.95;;
49972;SDS011;65693;49.798;10.968;2023-05-23T05:33:19;9.15;;;8.10;;
49972;SDS011;65693;49.798;10.968;2023-05-23T05:35:47;9.38;;;8.00;;
49972;SDS011;65693;49.798;10.968;2023-05-23T05:38:14;9.95;;;7.70;;
49972;SDS011;65693;49.798;10.968;2023-05-23T05:40:40;9.65;;;8.27;;
49972;SDS011;65693;49.798;10.968;2023-05-23T05:43:06;9.55;;;8.35;;
49972;SDS011;65693;49.798;10.968;2023-05-23T05:45:35;9.95;;;8.95;;
49972;SDS011;65693;49.798;10.968;2023-05-23T05:48:01;10.13;;;8.20;;
49972;SDS011;65693;49.798;10.968;2023-05-23T05:50:28;8.98;;;8.07;;
49972;SDS011;65693;49.798;10.968;2023-05-23T05:52:54;9.15;;;8.25;;
49972;SDS011;65693;49.798;10.968;2023-05-23T05:55:21;9.85;;;8.55;;
49972;SDS011;65693;49.798;10.968;2023-05-23T05:57:47;10.23;;;8.20;;
49972;SDS011;65693;49.798;10.968;2023-05-23T06:00:14;9.52;;;8.52;;
49972;SDS011;65693;49.798;10.968;2023-05-23T06:02:44;9.70;;;8.70;;
49972;SDS011;65693;49.798;10.968;2023-05-23T06:05:12;9.70;;;8.70;;
49972;SDS011;65693;49.798;10.968;2023-05-23T06:07:40;9.00;;;7.57;;
49972;SDS011;65693;49.798;10.968;2023-05-23T06:10:07;9.55;;;8.25;;
49972;SDS011;65693;49.798;10.968;2023-05-23T06:12:36;9.85;;;7.95;;
49972;SDS011;65693;49.798;10.968;2023-05-23T06:15:03;9.27;;;8.20;;
49972;SDS011;65693;49.798;10.968;2023-05-23T06:17:30;9.50;;;8.07;;
49972;SDS011;65693;49.798;10.968;2023-05-23T06:19:58;8.55;;;7.68;;
49972;SDS011;65693;49.798;10.968;2023-05-23T06:22:24;9.55;;;8.13;;
49972;SDS011;65693;49.798;10.968;2023-05-23T06:24:51;9.32;;;8.32;;
49972;SDS011;65693;49.798;10.968;2023-05-23T06:27:17;8.07;;;7.28;;
49972;SDS011;65693;49.798;10.968;2023-05-23T06:29:43;9.25;;;8.20;;
49972;SDS011;65693;49.798;10.968;2023-05-23T06:32:10;10.02;;;8.80;;
49972;SDS011;65693;49.798;10.968;2023-05-23T06:34:36;9.23;;;8.23;;
49972;SDS011;65693;49.798;10.968;2023-05-23T06:37:04;9.73;;;8.40;;
49972;SDS011;65693;49.798;10.968;2023-05-23T06:39:30;10.32;;;8.68;;
49972;SDS011;65693;49.798;10.968;2023-05-23T06:41:57;10.52;;;8.27;;
49972;SDS011;65693;49.798;10.968;2023-05-23T06:44:23;10.55;;;8.55;;
49972;SDS011;65693;49.798;10.968;2023-05-23T06:46:50;8.80;;;7.75;;
49972;SDS011;65693;49.798;10.968;2023-05-23T06:49:21;9.93;;;8.48;;
49972;SDS011;65693;49.798;10.968;2023-05-23T06:51:47;9.00;;;7.45;;
49972;SDS011;65693;49.798;10.968;2023-05-23T06:54:15;10.15;;;8.27;;
49972;SDS011;65693;49.798;10.968;2023-05-23T06:56:42;9.80;;;8.57;;
49972;SDS011;65693;49.798;10.968;2023-05-23T06:59:08;8.45;;;7.60;;
49972;SDS011;65693;49.798;10.968;2023-05-23T07:01:35;9.75;;;8.40;;
49972;SDS011;65693;49.798;10.968;2023-05-23T07:04:01;9.88;;;8.88;;
49972;SDS011;65693;49.798;10.968;2023-05-23T07:06:28;9.10;;;8.10;;
49972;SDS011;65693;49.798;10.968;2023-05-23T07:08:55;8.90;;;8.00;;
49972;SDS011;65693;49.798;10.968;2023-05-23T07:11:22;9.85;;;8.85;;
49972;SDS011;65693;49.798;10.968;2023-05-23T07:13:49;9.65;;;8.38;;
49972;SDS011;65693;49.798;10.968;2023-05-23T07:16:15;9.68;;;8.55;;
49972;SDS011;65693;49.798;10.968;2023-05-23T07:18:42;9.50;;;8.50;;
49972;SDS011;65693;49.798;10.968;2023-05-23T07:21:08;9.88;;;8.88;;
49972;SDS011;65693;49.798;10.968;2023-05-23T07:23:35;9.02;;;8.07;;
49972;SDS011;65693;49.798;10.968;2023-05-23T07:26:01;10.10;;;8.52;;
49972;SDS011;65693;49.798;10.968;2023-05-23T07:28:29;11.57;;;8.35;;
49972;SDS011;65693;49.798;10.968;2023-05-23T07:30:55;9.30;;;8.27;;
49972;SDS011;65693;49.798;10.968;2023-05-23T07:33:22;9.20;;;8.05;;
49972;SDS011;65693;49.798;10.968;2023-05-23T07:35:48;9.98;;;8.23;;
49972;SDS011;65693;49.798;10.968;2023-05-23T07:38:15;8.95;;;7.97;;
49972;SDS011;65693;49.798;10.968;2023-05-23T07:40:42;8.82;;;7.93;;
49972;SDS011;65693;49.798;10.968;2023-05-23T07:43:08;9.45;;;8.48;;
49972;SDS011;65693;49.798;10.968;2023-05-23T07:45:36;10.02;;;8.90;;
49972;SDS011;65693;49.798;10.968;2023-05-23T07:48:02;9.82;;;8.30;;
49972;SDS011;65693;49.798;10.968;2023-05-23T07:50:29;9.55;;;8.23;;
49972;SDS011;65693;49.798;10.968;2023-05-23T07:52:55;9.95;;;8.70;;
49972;SDS011;65693;49.798;10.968;2023-05-23T07:55:22;10.98;;;9.05;;
49972;SDS011;65693;49.798;10.968;2023-05-23T07:57:48;9.88;;;8.85;;
49972;SDS011;65693;49.798;10.968;2023-05-23T08:00:15;9.20;;;8.20;;
49972;SDS011;65693;49.798;10.968;2023-05-23T08:02:43;9.75;;;8.75;;
49972;SDS011;65693;49.798;10.968;2023-05-23T08:05:09;9.93;;;8.75;;
49972;SDS011;65693;49.798;10.968;2023-05-23T08:07:36;9.77;;;8.40;;
49972;SDS011;65693;49.798;10.968;2023-05-23T08:10:02;10.68;;;9.50;;
49972;SDS011;65693;49.798;10.968;2023-05-23T08:12:29;9.57;;;8.55;;
49972;SDS011;65693;49.798;10.968;2023-05-23T08:14:56;10.75;;;9.20;;
49972;SDS011;65693;49.798;10.968;2023-05-23T08:17:22;9.45;;;8.23;;
49972;SDS011;65693;49.798;10.968;2023-05-23T08:19:50;9.55;;;8.35;;
49972;SDS011;65693;49.798;10.968;2023-05-23T08:22:17;9.18;;;8.27;;
49972;SDS011;65693;49.798;10.968;2023-05-23T08:24:43;9.82;;;8.73;;
49972;SDS011;65693;49.798;10.968;2023-05-23T08:27:10;9.40;;;8.35;;
49972;SDS011;65693;49.798;10.968;2023-05-23T08:29:36;9.20;;;8.23;;
49972;SDS011;65693;49.798;10.968;2023-05-23T08:32:03;10.95;;;9.85;;
49972;SDS011;65693;49.798;10.968;2023-05-23T08:34:29;10.07;;;7.70;;
49972;SDS011;65693;49.798;10.968;2023-05-23T08:36:58;10.65;;;9.32;;
49972;SDS011;65693;49.798;10.968;2023-05-23T08:39:25;9.18;;;8.02;;
49972;SDS011;65693;49.798;10.968;2023-05-23T08:41:51;9.23;;;8.10;;
49972;SDS011;65693;49.798;10.968;2023-05-23T08:44:17;10.05;;;9.05;;
49972;SDS011;65693;49.798;10.968;2023-05-23T08:46:44;9.77;;;8.63;;
49972;SDS011;65693;49.798;10.968;2023-05-23T08:49:13;9.73;;;8.73;;
49972;SDS011;65693;49.798;10.968;2023-05-23T08:51:42;9.15;;;8.25;;
49972;SDS011;65693;49.798;10.968;2023-05-23T08:54:10;10.10;;;8.88;;
49972;SDS011;65693;49.798;10.968;2023-05-23T08:56:37;10.02;;;8.98;;
49972;SDS011;65693;49.798;10.968;2023-05-23T08:59:06;10.30;;;8.90;;
49972;SDS011;65693;49.798;10.968;2023-05-23T09:01:34;9.80;;;8.70;;
49972;SDS011;65693;49.798;10.968;2023-05-23T09:04:01;10.32;;;8.93;;
49972;SDS011;65693;49.798;10.968;2023-05-23T09:06:29;10.07;;;8.65;;
49972;SDS011;65693;49.798;10.968;2023-05-23T09:08:56;9.52;;;8.52;;
49972;SDS011;65693;49.798;10.968;2023-05-23T09:11:24;10.63;;;9.07;;
49972;SDS011;65693;49.798;10.968;2023-05-23T09:13:50;9.80;;;8.80;;
49972;SDS011;65693;49.798;10.968;2023-05-23T09:16:17;9.93;;;8.82;;
49972;SDS011;65693;49.798;10.968;2023-05-23T09:18:44;10.10;;;8.85;;
49972;SDS011;65693;49.798;10.968;2023-05-23T09:21:11;13.73;;;12.50;;
49972;SDS011;65693;49.798;10.968;2023-05-23T09:23:39;15.75;;;11.05;;
49972;SDS011;65693;49.798;10.968;2023-05-23T09:26:06;13.40;;;11.35;;
49972;SDS011;65693;49.798;10.968;2023-05-23T09:28:36;13.93;;;9.05;;
49972;SDS011;65693;49.798;10.968;2023-05-23T09:31:04;19.85;;;10.85;;
49972;SDS011;65693;49.798;10.968;2023-05-23T09:33:34;23.35;;;11.43;;
49972;SDS011;65693;49.798;10.968;2023-05-23T09:36:02;25.08;;;12.18;;
49972;SDS011;65693;49.798;10.968;2023-05-23T09:38:29;27.77;;;11.20;;
49972;SDS011;65693;49.798;10.968;2023-05-23T09:40:56;20.88;;;10.98;;
49972;SDS011;65693;49.798;10.968;2023-05-23T09:43:24;21.67;;;11.00;;
49972;SDS011;65693;49.798;10.968;2023-05-23T09:45:52;18.50;;;10.93;;
49972;SDS011;65693;49.798;10.968;2023-05-23T09:48:19;20.20;;;10.85;;
49972;SDS011;65693;49.798;10.968;2023-05-23T09:50:54;17.52;;;9.95;;
49972;SDS011;65693;49.798;10.968;2023-05-23T09:53:20;22.15;;;10.98;;
49972;SDS011;65693;49.798;10.968;2023-05-23T09:55:47;19.23;;;11.13;;
49972;SDS011;65693;49.798;10.968;2023-05-23T09:58:16;18.42;;;10.73;;
49972;SDS011;65693;49.798;10.968;2023-05-23T10:00:44;15.77;;;10.77;;
49972;SDS011;65693;49.798;10.968;2023-05-23T10:03:14;22.27;;;11.50;;
49972;SDS011;65693;49.798;10.968;2023-05-23T10:05:43;18.38;;;9.93;;
49972;SDS011;65693;49.798;10.968;2023-05-23T10:08:12;21.08;;;10.30;;
49972;SDS011;65693;49.798;10.968;2023-05-23T10:13:59;20.45;;;11.63;;
49972;SDS011;65693;49.798;10.968;2023-05-23T10:16:27;19.30;;;10.55;;
49972;SDS011;65693;49.798;10.968;2023-05-23T10:19:02;19.77;;;10.75;;
49972;SDS011;65693;49.798;10.968;2023-05-23T10:21:34;18.17;;;10.75;;
49972;SDS011;65693;49.798;10.968;2023-05-23T10:24:03;17.23;;;10.65;;
49972;SDS011;65693;49.798;10.968;2023-05-23T10:26:30;17.00;;;10.68;;
49972;SDS011;65693;49.798;10.968;2023-05-23T10:28:57;19.17;;;9.52;;
49972;SDS011;65693;49.798;10.968;2023-05-23T10:31:25;21.55;;;10.35;;
49972;SDS011;65693;49.798;10.968;2023-05-23T10:33:55;15.02;;;9.73;;
49972;SDS011;65693;49.798;10.968;2023-05-23T10:36:29;12.85;;;9.38;;
49972;SDS011;65693;49.798;10.968;2023-05-23T10:39:01;14.98;;;10.20;;
49972;SDS011;65693;49.798;10.968;2023-05-23T10:41:35;15.93;;;9.50;;
49972;SDS011;65693;49.798;10.968;2023-05-23T10:44:09;12.73;;;9.35;;
49972;SDS011;65693;49.798;10.968;2023-05-23T10:46:49;19.58;;;9.85;;
49972;SDS011;65693;49.798;10.968;2023-05-23T10:49:17;14.95;;;9.30;;
49972;SDS011;65693;49.798;10.968;2023-05-23T10:51:47;15.60;;;10.07;;
49972;SDS011;65693;49.798;10.968;2023-05-23T10:54:15;15.20;;;9.68;;
49972;SDS011;65693;49.798;10.968;2023-05-23T10:56:44;13.05;;;8.93;;
49972;SDS011;65693;49.798;10.968;2023-05-23T10:59:18;18.00;;;10.05;;
49972;SDS011;65693;49.798;10.968;2023-05-23T11:01:45;16.55;;;9.55;;
49972;SDS011;65693;49.798;10.968;2023-05-23T11:04:11;16.45;;;9.65;;
49972;SDS011;65693;49.798;10.968;2023-05-23T11:06:38;14.88;;;9.77;;
49972;SDS011;65693;49.798;10.968;2023-05-23T11:09:10;14.05;;;9.50;;
49972;SDS011;65693;49.798;10.968;2023-05-23T11:11:53;17.60;;;10.60;;
49972;SDS011;65693;49.798;10.968;2023-05-23T11:14:30;17.85;;;10.15;;
49972;SDS011;65693;49.798;10.968;2023-05-23T11:16:57;15.63;;;9.55;;
49972;SDS011;65693;49.798;10.968;2023-05-23T11:19:25;13.43;;;9.07;;
49972;SDS011;65693;49.798;10.968;2023-05-23T11:21:54;12.20;;;8.90;;
49972;SDS011;65693;49.798;10.968;2023-05-23T11:24:30;14.00;;;9.57;;
49972;SDS011;65693;49.798;10.968;2023-05-23T11:27:15;13.57;;;8.48;;
49972;SDS011;65693;49.798;10.968;2023-05-23T11:29:44;12.85;;;9.15;;
49972;SDS011;65693;49.798;10.968;2023-05-23T11:32:20;13.52;;;9.15;;
49972;SDS011;65693;49.798;10.968;2023-05-23T11:34:48;14.32;;;9.13;;
49972;SDS011;65693;49.798;10.968;2023-05-23T11:37:15;19.20;;;9.40;;
49972;SDS011;65693;49.798;10.968;2023-05-23T11:39:43;14.93;;;9.05;;
49972;SDS011;65693;49.798;10.968;2023-05-23T11:42:10;14.32;;;8.60;;
49972;SDS011;65693;49.798;10.968;2023-05-23T11:44:36;14.55;;;9.20;;
49972;SDS011;65693;49.798;10.968;2023-05-23T11:47:03;16.33;;;9.48;;
49972;SDS011;65693;49.798;10.968;2023-05-23T11:49:33;12.45;;;8.63;;
49972;SDS011;65693;49.798;10.968;2023-05-23T11:52:02;12.43;;;8.57;;
49972;SDS011;65693;49.798;10.968;2023-05-23T11:54:30;12.43;;;8.43;;
49972;SDS011;65693;49.798;10.968;2023-05-23T11:56:58;11.43;;;8.05;;
49972;SDS011;65693;49.798;10.968;2023-05-23T11:59:25;14.50;;;8.70;;
49972;SDS011;65693;49.798;10.968;2023-05-23T12:01:52;13.80;;;8.80;;
49972;SDS011;65693;49.798;10.968;2023-05-23T12:04:18;11.02;;;8.70;;
49972;SDS011;65693;49.798;10.968;2023-05-23T12:06:45;14.00;;;8.90;;
49972;SDS011;65693;49.798;10.968;2023-05-23T12:09:13;14.77;;;8.80;;
49972;SDS011;65693;49.798;10.968;2023-05-23T12:11:40;12.32;;;8.45;;
49972;SDS011;65693;49.798;10.968;2023-05-23T12:14:08;13.85;;;8.40;;
49972;SDS011;65693;49.798;10.968;2023-05-23T12:16:41;11.20;;;7.90;;
49972;SDS011;65693;49.798;10.968;2023-05-23T12:19:08;11.57;;;8.27;;
49972;SDS011;65693;49.798;10.968;2023-05-23T12:21:42;11.18;;;8.13;;
49972;SDS011;65693;49.798;10.968;2023-05-23T12:24:15;12.60;;;8.35;;
49972;SDS011;65693;49.798;10.968;2023-05-23T12:26:46;11.90;;;8.57;;
49972;SDS011;65693;49.798;10.968;2023-05-23T12:29:16;11.30;;;8.25;;
49972;SDS011;65693;49.798;10.968;2023-05-23T12:31:43;11.70;;;8.32;;
49972;SDS011;65693;49.798;10.968;2023-05-23T12:34:13;13.30;;;8.40;;
49972;SDS011;65693;49.798;10.968;2023-05-23T12:36:40;10.73;;;8.00;;
49972;SDS011;65693;49.798;10.968;2023-05-23T12:39:06;9.63;;;8.07;;
49972;SDS011;65693;49.798;10.968;2023-05-23T12:41:34;10.90;;;7.90;;
49972;SDS011;65693;49.798;10.968;2023-05-23T12:44:01;11.27;;;8.75;;
49972;SDS011;65693;49.798;10.968;2023-05-23T12:46:29;11.77;;;8.32;;
49972;SDS011;65693;49.798;10.968;2023-05-23T12:48:55;11.93;;;8.43;;
49972;SDS011;65693;49.798;10.968;2023-05-23T12:51:22;11.57;;;8.02;;
49972;SDS011;65693;49.798;10.968;2023-05-23T12:53:48;12.98;;;8.40;;
49972;SDS011;65693;49.798;10.968;2023-05-23T12:56:15;12.63;;;8.85;;
49972;SDS011;65693;49.798;10.968;2023-05-23T12:58:41;10.85;;;8.23;;
49972;SDS011;65693;49.798;10.968;2023-05-23T13:01:08;9.65;;;8.13;;
49972;SDS011;65693;49.798;10.968;2023-05-23T13:03:36;11.10;;;7.90;;
49972;SDS011;65693;49.798;10.968;2023-05-23T13:06:03;9.55;;;7.57;;
49972;SDS011;65693;49.798;10.968;2023-05-23T13:08:29;10.95;;;8.05;;
49972;SDS011;65693;49.798;10.968;2023-05-23T13:10:56;10.50;;;8.25;;
49972;SDS011;65693;49.798;10.968;2023-05-23T13:13:22;9.40;;;7.72;;
49972;SDS011;65693;49.798;10.968;2023-05-23T13:15:49;9.52;;;8.02;;
49972;SDS011;65693;49.798;10.968;2023-05-23T13:18:16;10.23;;;7.85;;
49972;SDS011;65693;49.798;10.968;2023-05-23T13:20:43;9.75;;;7.82;;
49972;SDS011;65693;49.798;10.968;2023-05-23T13:23:10;10.55;;;8.65;;
49972;SDS011;65693;49.798;10.968;2023-05-23T13:25:36;13.15;;;8.60;;
49972;SDS011;65693;49.798;10.968;2023-05-23T13:28:03;10.30;;;7.35;;
49972;SDS011;65693;49.798;10.968;2023-05-23T13:30:30;10.05;;;7.53;;
49972;SDS011;65693;49.798;10.968;2023-05-23T13:32:57;10.45;;;7.50;;
49972;SDS011;65693;49.798;10.968;2023-05-23T13:35:23;10.40;;;7.80;;
49972;SDS011;65693;49.798;10.968;2023-05-23T13:37:51;11.07;;;7.85;;
49972;SDS011;65693;49.798;10.968;2023-05-23T13:40:18;14.50;;;8.32;;
49972;SDS011;65693;49.798;10.968;2023-05-23T13:42:46;9.73;;;8.07;;
49972;SDS011;65693;49.798;10.968;2023-05-23T13:45:14;10.10;;;7.53;;
49972;SDS011;65693;49.798;10.968;2023-05-23T13:47:41;11.95;;;8.27;;
49972;SDS011;65693;49.798;10.968;2023-05-23T13:50:08;9.65;;;7.90;;
49972;SDS011;65693;49.798;10.968;2023-05-23T13:52:35;9.25;;;7.55;;
49972;SDS011;65693;49.798;10.968;2023-05-23T13:55:03;10.50;;;7.70;;
49972;SDS011;65693;49.798;10.968;2023-05-23T13:57:30;11.63;;;7.78;;
49972;SDS011;65693;49.798;10.968;2023-05-23T13:59:57;9.50;;;7.35;;
49972;SDS011;65693;49.798;10.968;2023-05-23T14:02:23;9.13;;;7.50;;
49972;SDS011;65693;49.798;10.968;2023-05-23T14:04:50;10.82;;;7.75;;
49972;SDS011;65693;49.798;10.968;2023-05-23T14:07:17;9.25;;;7.45;;
49972;SDS011;65693;49.798;10.968;2023-05-23T14:09:43;10.75;;;6.57;;
49972;SDS011;65693;49.798;10.968;2023-05-23T14:12:11;9.02;;;7.13;;
49972;SDS011;65693;49.798;10.968;2023-05-23T14:14:38;8.80;;;7.35;;
49972;SDS011;65693;49.798;10.968;2023-05-23T14:17:04;10.57;;;7.90;;
49972;SDS011;65693;49.798;10.968;2023-05-23T14:19:31;9.77;;;7.82;;
49972;SDS011;65693;49.798;10.968;2023-05-23T14:21:57;10.15;;;7.32;;
49972;SDS011;65693;49.798;10.968;2023-05-23T14:24:23;10.32;;;7.78;;
49972;SDS011;65693;49.798;10.968;2023-05-23T14:26:50;10.93;;;7.68;;
49972;SDS011;65693;49.798;10.968;2023-05-23T14:29:18;11.45;;;7.32;;
49972;SDS011;65693;49.798;10.968;2023-05-23T14:31:44;9.85;;;7.03;;
49972;SDS011;65693;49.798;10.968;2023-05-23T14:34:10;8.30;;;6.80;;